Serednikovo, Russia
Current Conditions -  °F | °C
As of 7:00 AM on Friday 31 Oct 2014 (Local Time) from UUWW Reporting Station
Broken Clouds Broken Clouds  
Wind Chill: 30°   Ceiling: 10000
Heat Index: 34°   Visibility: 4mi
Dew Point: 23°   Wind: 4mph
Humidity: 65%   Direction: 250°WSW
Pressure: 30.03"   Gusts: NA
Location:  55.83°N, 35.82°E
Report Text: UUWW 310400Z 25002MPS 6000 SCT033 BKN100 01/M05 Q1017 24000070NOSIG
Loading
Personal Weather Stations






























Interactive Weather Map
Tropical Storm Tracking
New forecast layout! Learn more

10-Day Weather Forecast

Advertisements
Track Severe Weather on mobile